Flight Track Log - Related Links

Times and Time Zones

All times are in EST time to prevent confusion due to time zone crossing. See the SKW7363 flight status page for this flight to view local times or setup timezone preferences in your user account.

Time Position Orientation Groundspeed Altitude Reporting Facility
EST Latitude Longitude Course Direction KTS MPH feet Rate Location/Type
Mon 10:10:57 PM 40.8022 -112.0006 323° Northwest 153 176 4,800  Level Salt Lake Center
Mon 10:11:51 PM 40.8417 -112.0269 333° Northwest 195 224 6,100 1,367 Climbing Salt Lake Center
Mon 10:12:16 PM 40.8497 -112.0431 303° West 193 222 6,600 1,548 Climbing Salt Lake Center
Mon 10:12:53 PM 40.8750 -112.0867 307° West 211 243 7,700 1,672 Climbing Salt Lake Center
Mon 10:13:17 PM 40.8881 -112.0983 326° Northwest 208 239 8,300 1,700 Climbing Salt Lake Center
Mon 10:13:53 PM 40.9217 -112.1275 327° Northwest 200 230 9,400 1,645 Climbing Salt Lake Center
Mon 10:14:00 PM 40.9758 -112.2453 313° West  Level Estimated
Mon 10:14:19 PM 40.9333 -112.1417 317° Northwest 201 231 10,000  Level Salt Lake Center
Mon 10:15:00 PM 41.0381 -112.3348 314° West  Level Estimated
Mon 10:15:20 PM 40.9872 -112.1989 321° Northwest 203 234 12,000  Level Salt Lake Center
Mon 10:16:00 PM 41.1111 -112.4089 323° Northwest  Level FlightAware Approximate
Mon 10:16:22 PM 41.0331 -112.2481 321° Northwest 208 239 13,800  Level Salt Lake Center
Mon 10:17:24 PM 41.0694 -112.3044 311° West 202 232 15,300 1,366 Climbing Salt Lake Center
Mon 10:18:25 PM 41.1061 -112.3622 310° West 203 234 16,600 1,268 Climbing Salt Lake Center
Mon 10:19:27 PM 41.1447 -112.4203 311° West 210 242 17,900 976 Climbing Salt Lake Center
Mon 10:20:28 PM 41.1833 -112.4789 311° West 210 242 18,600 878 Climbing Salt Lake Center
Mon 10:21:30 PM 41.2228 -112.5364 312° West 210 242 19,700 677 Climbing Salt Lake Center
Mon 10:22:32 PM 41.2639 -112.5978 312° West 224 258 20,000 146 Climbing Salt Lake Center
Mon 10:23:33 PM 41.3197 -112.6814 312° West 250 288 20,000  Level Salt Lake Center
Mon 10:24:35 PM 41.3664 -112.7522 311° West 254 292 20,000  Level Salt Lake Center
Mon 10:25:36 PM 41.4128 -112.8239 311° West 256 295 20,000  Level Salt Lake Center
Mon 10:26:38 PM 41.4583 -112.8961 310° West 255 293 20,000  Level Salt Lake Center
Mon 10:27:39 PM 41.5058 -112.9656 312° West 254 292 20,000  Level Salt Lake Center
Mon 10:28:41 PM 41.5503 -113.0381 309° West 253 291 20,000  Level Salt Lake Center
Mon 10:29:43 PM 41.5978 -113.1097 312° West 256 295 20,000  Level Salt Lake Center
Mon 10:30:44 PM 41.6467 -113.1808 313° West 259 298 20,000  Level Salt Lake Center
Mon 10:31:46 PM 41.7019 -113.2669 311° West 256 295 20,000  Level Salt Lake Center
Mon 10:32:47 PM 41.7489 -113.3386 311° West 255 293 20,000  Level Salt Lake Center
Mon 10:33:49 PM 41.7961 -113.4100 312° West 255 293 20,000  Level Salt Lake Center
Mon 10:34:51 PM 41.8428 -113.4822 311° West 255 293 20,000  Level Salt Lake Center
Mon 10:35:52 PM 41.8892 -113.5556 310° West 258 297 20,000  Level Salt Lake Center
Mon 10:36:54 PM 41.9361 -113.6286 311° West 258 297 20,000 -195 Level Salt Lake Center
Mon 10:37:55 PM 41.9822 -113.7019 310° West 258 297 19,600 -780 Descending Salt Lake Center
Mon 10:38:57 PM 42.0314 -113.7742 313° West 261 300 18,400 -1,073 Descending Salt Lake Center
Mon 10:39:58 PM 42.0881 -113.8653 310° West 265 305 17,400 -1,122 Descending Salt Lake Center
Mon 10:41:00 PM 42.1356 -113.9400 311° West 264 304 16,100 -1,258 Descending Salt Lake Center
Mon 10:42:02 PM 42.1836 -114.0147 311° West 264 304 14,800 -1,512 Descending Salt Lake Center
Mon 10:43:03 PM 42.2325 -114.0900 311° West 265 305 13,000 -1,659 Descending Salt Lake Center
Mon 10:44:05 PM 42.2761 -114.1581 311° West 268 308 11,400 -1,902 Descending Salt Lake Center
Mon 10:45:06 PM 42.3542 -114.2400 322° Northwest 274 315 9,100 -2,262 Descending Salt Lake Center

Login

Don't have an account? Register now (free) for customized features, flight alerts, and more!